createdAt,value
2017-06-08T00:00:02.750Z,12.82
2017-06-08T00:00:43.222Z,12.85
2017-06-08T00:01:23.711Z,12.82
2017-06-08T00:02:04.183Z,12.71
2017-06-08T00:02:44.676Z,12.79
2017-06-08T00:03:25.168Z,12.72
2017-06-08T00:04:05.657Z,12.75
2017-06-08T00:04:46.154Z,12.75
2017-06-08T00:05:26.641Z,12.68
2017-06-08T00:06:07.123Z,12.64
2017-06-08T00:06:47.627Z,12.64
2017-06-08T00:07:28.101Z,12.54
2017-06-08T00:08:08.593Z,12.68
2017-06-08T00:08:49.085Z,12.62
2017-06-08T00:09:29.589Z,12.56
2017-06-08T00:10:10.080Z,12.46
2017-06-08T00:10:50.561Z,12.42
2017-06-08T00:11:31.051Z,12.52
2017-06-08T00:12:11.545Z,12.37
2017-06-08T00:12:52.018Z,12.35
2017-06-08T00:13:32.508Z,12.38
2017-06-08T00:14:12.990Z,12.38
2017-06-08T00:14:53.462Z,12.39
2017-06-08T00:15:33.961Z,12.39
2017-06-08T00:16:14.474Z,12.37
2017-06-08T00:16:54.939Z,12.38
2017-06-08T00:17:35.430Z,12.32
2017-06-08T00:18:15.918Z,12.37
2017-06-08T00:18:56.384Z,12.35
2017-06-08T00:19:36.866Z,12.27
2017-06-08T00:20:17.330Z,12.24
2017-06-08T00:22:15.034Z,12.2
2017-06-08T00:22:55.462Z,12.12
2017-06-08T00:23:35.935Z,12.1
2017-06-08T00:24:16.427Z,12.07
2017-06-08T00:24:56.909Z,12.04
2017-06-08T00:25:37.399Z,11.95
2017-06-08T00:26:17.873Z,11.9
2017-06-08T00:26:58.356Z,11.88
2017-06-08T00:27:38.836Z,11.94
2017-06-08T00:28:19.325Z,11.91
2017-06-08T00:28:59.802Z,11.83
2017-06-08T00:29:40.296Z,11.79
2017-06-08T00:30:20.787Z,11.78
2017-06-08T00:31:01.263Z,11.64
2017-06-08T00:31:41.768Z,11.69
2017-06-08T00:32:22.240Z,11.64
2017-06-08T00:33:02.743Z,11.69
2017-06-08T00:33:43.225Z,11.61
2017-06-08T00:34:23.704Z,11.6
2017-06-08T00:35:04.239Z,11.6
2017-06-08T00:35:44.676Z,11.58
2017-06-08T00:36:25.172Z,11.62
2017-06-08T00:37:05.668Z,11.73
2017-06-08T00:37:46.155Z,11.57
2017-06-08T00:38:26.624Z,11.46
2017-06-08T00:39:07.112Z,11.37
2017-06-08T00:39:47.594Z,11.39
2017-06-08T00:40:28.064Z,11.28
2017-06-08T00:41:08.561Z,11.25
2017-06-08T00:41:49.048Z,11.33
2017-06-08T00:42:29.545Z,11.32
2017-06-08T00:43:10.030Z,11.28
2017-06-08T00:43:51.041Z,11.18
2017-06-08T00:44:31.540Z,11.22
2017-06-08T00:45:12.009Z,11.17
2017-06-08T00:45:52.500Z,11.09
2017-06-08T00:46:32.982Z,11.06
2017-06-08T00:47:13.458Z,11.06
2017-06-08T00:47:53.951Z,11.09
2017-06-08T00:48:34.434Z,11.17
2017-06-08T00:49:14.924Z,11.18
2017-06-08T00:49:55.393Z,11.18
2017-06-08T00:50:35.893Z,11.07
2017-06-08T00:51:16.362Z,11.02
2017-06-08T00:51:56.845Z,11.03
2017-06-08T00:52:37.344Z,11.06
2017-06-08T00:53:17.834Z,11.07
2017-06-08T00:53:58.304Z,10.96
2017-06-08T00:54:38.797Z,10.86
2017-06-08T00:55:19.281Z,10.91
2017-06-08T00:55:59.766Z,10.91
2017-06-08T00:56:40.256Z,10.92
2017-06-08T00:57:20.742Z,10.84
2017-06-08T00:58:01.889Z,10.81
2017-06-08T00:58:42.380Z,10.89
2017-06-08T00:59:22.873Z,10.89
2017-06-08T01:00:03.366Z,10.82
2017-06-08T01:00:43.845Z,10.86
2017-06-08T01:01:24.353Z,10.84
2017-06-08T01:02:04.815Z,10.79
2017-06-08T01:02:45.284Z,10.78
2017-06-08T01:03:25.783Z,10.86
2017-06-08T01:04:06.281Z,10.7
2017-06-08T01:04:46.776Z,10.63
2017-06-08T01:05:27.266Z,10.67
2017-06-08T01:06:07.738Z,10.66
2017-06-08T01:06:48.221Z,10.67
2017-06-08T01:07:28.696Z,10.74
2017-06-08T01:08:09.233Z,10.74
2017-06-08T01:08:49.728Z,10.67
2017-06-08T01:09:30.234Z,10.67
2017-06-08T01:10:10.719Z,10.63
2017-06-08T01:10:51.234Z,10.71
2017-06-08T01:11:31.670Z,10.67
2017-06-08T01:12:12.173Z,10.67
2017-06-08T01:12:52.651Z,10.64
2017-06-08T01:13:33.147Z,10.68
2017-06-08T01:14:13.650Z,10.61
2017-06-08T01:14:54.114Z,10.7
2017-06-08T01:15:34.603Z,10.59
2017-06-08T01:16:15.090Z,10.56
2017-06-08T01:16:55.577Z,10.64
2017-06-08T01:17:36.069Z,10.59
2017-06-08T01:18:16.606Z,10.53
2017-06-08T01:18:57.036Z,10.48
2017-06-08T01:19:37.541Z,10.47
2017-06-08T01:20:18.033Z,10.42
2017-06-08T01:20:58.528Z,10.48
2017-06-08T01:21:39.021Z,10.53
2017-06-08T01:22:19.487Z,10.55
2017-06-08T01:22:59.978Z,10.51
2017-06-08T01:23:40.464Z,10.52
2017-06-08T01:24:20.947Z,10.45
2017-06-08T01:25:01.470Z,10.33
2017-06-08T01:25:41.910Z,10.38
2017-06-08T01:26:22.406Z,10.3
2017-06-08T01:27:02.893Z,10.34
2017-06-08T01:27:43.362Z,10.32
2017-06-08T01:28:23.850Z,10.33
2017-06-08T01:29:04.340Z,10.4
2017-06-08T01:29:44.820Z,10.42
2017-06-08T01:30:25.296Z,10.32
2017-06-08T01:31:05.780Z,10.23
2017-06-08T01:31:46.271Z,10.25
2017-06-08T01:32:26.748Z,10.25
2017-06-08T01:33:07.218Z,10.22
2017-06-08T01:33:47.716Z,10.23
2017-06-08T01:34:28.213Z,10.26
2017-06-08T01:35:08.694Z,10.26
2017-06-08T01:35:49.187Z,10.17
2017-06-08T01:36:29.701Z,10.2
2017-06-08T01:37:10.167Z,10.18
2017-06-08T01:37:50.647Z,10.18
2017-06-08T01:38:31.129Z,10.14
2017-06-08T01:39:11.617Z,10.14
2017-06-08T01:39:52.095Z,10.12
2017-06-08T01:40:32.581Z,10.07
2017-06-08T01:41:13.060Z,10.05
2017-06-08T01:41:53.550Z,9.99
2017-06-08T01:42:34.048Z,10.08
2017-06-08T01:43:14.523Z,10.11
2017-06-08T01:43:55.012Z,10.01
2017-06-08T01:44:35.514Z,10.02
2017-06-08T01:45:16.010Z,10.02
2017-06-08T01:45:56.469Z,9.91
2017-06-08T01:46:36.972Z,10.05
2017-06-08T01:47:17.476Z,10.04
2017-06-08T01:47:57.933Z,10.09
2017-06-08T01:48:38.413Z,10.05
2017-06-08T01:49:18.900Z,10.17
2017-06-08T01:49:59.392Z,10.05
2017-06-08T01:50:39.892Z,9.94
2017-06-08T01:51:20.374Z,9.91
2017-06-08T01:52:00.856Z,9.89
2017-06-08T01:52:41.337Z,9.9
2017-06-08T01:53:21.820Z,9.83
2017-06-08T01:54:02.315Z,9.99
2017-06-08T01:54:42.806Z,9.89
2017-06-08T01:55:23.298Z,10.02
2017-06-08T01:56:03.777Z,9.93
2017-06-08T01:56:44.269Z,9.84
2017-06-08T01:57:24.754Z,9.89
2017-06-08T01:58:05.390Z,9.78
2017-06-08T01:58:45.794Z,9.89
2017-06-08T01:59:26.274Z,9.87
2017-06-08T02:00:06.772Z,9.87
2017-06-08T02:00:47.260Z,9.87
2017-06-08T02:01:27.727Z,9.86
2017-06-08T02:02:08.237Z,9.76
2017-06-08T02:02:48.723Z,9.81
2017-06-08T02:03:29.208Z,9.83
2017-06-08T02:04:09.684Z,9.87
2017-06-08T02:04:50.187Z,9.81
2017-06-08T02:05:30.676Z,9.86
2017-06-08T02:06:11.177Z,9.9
2017-06-08T02:06:51.645Z,9.89
2017-06-08T02:07:32.162Z,9.9
2017-06-08T02:08:12.599Z,9.96
2017-06-08T02:08:53.088Z,9.89
2017-06-08T02:09:33.585Z,9.89
2017-06-08T02:10:14.103Z,9.86
2017-06-08T02:10:54.535Z,9.86
2017-06-08T02:11:35.017Z,9.89
2017-06-08T02:12:15.529Z,9.86
2017-06-08T02:12:56.043Z,9.9
2017-06-08T02:13:36.525Z,9.91
2017-06-08T02:14:17.004Z,9.87
2017-06-08T02:14:57.484Z,9.87
2017-06-08T02:15:37.967Z,9.86
2017-06-08T02:16:18.488Z,9.76
2017-06-08T02:16:58.971Z,9.83
2017-06-08T02:17:39.451Z,9.76
2017-06-08T02:18:19.925Z,9.76
2017-06-08T02:19:00.415Z,9.84
2017-06-08T02:19:40.895Z,9.81
2017-06-08T02:20:21.379Z,9.87
2017-06-08T02:21:01.876Z,9.78
2017-06-08T02:21:42.396Z,9.78
2017-06-08T02:22:22.831Z,9.84
2017-06-08T02:23:03.314Z,9.87
2017-06-08T02:23:43.832Z,9.81
2017-06-08T02:24:24.294Z,9.89
2017-06-08T02:25:04.769Z,9.91
2017-06-08T02:25:45.248Z,9.93
2017-06-08T02:27:37.798Z,9.83
2017-06-08T02:28:18.240Z,9.87
2017-06-08T02:28:58.734Z,9.86
2017-06-08T02:29:39.210Z,9.78
2017-06-08T02:30:19.707Z,9.72
2017-06-08T02:31:00.211Z,9.65
2017-06-08T02:31:40.703Z,9.6
2017-06-08T02:32:21.176Z,9.53
2017-06-08T02:33:01.662Z,9.65
2017-06-08T02:33:42.153Z,9.51
2017-06-08T02:34:22.641Z,9.51
2017-06-08T02:35:03.123Z,9.51
2017-06-08T02:35:43.603Z,9.58
2017-06-08T02:36:24.061Z,9.58
2017-06-08T02:37:04.540Z,9.61
2017-06-08T02:37:45.043Z,9.61
2017-06-08T02:38:25.525Z,9.61
2017-06-08T02:39:06.018Z,9.57
2017-06-08T02:39:46.510Z,9.65
2017-06-08T02:40:26.982Z,9.58
2017-06-08T02:41:07.519Z,9.69
2017-06-08T02:41:47.958Z,9.68
2017-06-08T02:42:28.438Z,9.74
2017-06-08T02:43:08.935Z,9.71
2017-06-08T02:43:49.410Z,9.75
2017-06-08T02:44:29.894Z,9.75
2017-06-08T02:45:10.391Z,9.65
2017-06-08T02:45:50.871Z,9.58
2017-06-08T02:46:31.362Z,9.6
2017-06-08T02:47:11.872Z,9.56
2017-06-08T02:47:52.371Z,9.51
2017-06-08T02:48:32.825Z,9.53
2017-06-08T02:49:13.309Z,9.53
2017-06-08T02:49:53.810Z,9.53
2017-06-08T02:50:34.281Z,9.5
2017-06-08T02:51:14.784Z,9.56
2017-06-08T02:51:55.282Z,9.58
2017-06-08T02:52:35.772Z,9.53
2017-06-08T02:53:16.256Z,9.43
2017-06-08T02:53:56.756Z,9.42
2017-06-08T02:54:37.239Z,9.47
2017-06-08T02:55:17.737Z,9.47
2017-06-08T02:55:58.234Z,9.51
2017-06-08T02:56:38.720Z,9.36
2017-06-08T02:57:19.190Z,9.46
2017-06-08T02:57:59.673Z,9.35
2017-06-08T02:58:40.166Z,9.47
2017-06-08T02:59:20.648Z,9.51
2017-06-08T03:00:01.137Z,9.5
2017-06-08T03:00:41.624Z,9.36
2017-06-08T03:01:22.119Z,9.38
2017-06-08T03:02:02.589Z,9.4
2017-06-08T03:02:43.078Z,9.43
2017-06-08T03:03:23.551Z,9.33
2017-06-08T03:04:04.037Z,9.32
2017-06-08T03:04:44.512Z,9.31
2017-06-08T03:05:25.022Z,9.32
2017-06-08T03:06:05.460Z,9.28
2017-06-08T03:06:45.933Z,9.15
2017-06-08T03:07:26.460Z,9.17
2017-06-08T03:08:06.916Z,9.32
2017-06-08T03:08:47.379Z,9.33
2017-06-08T03:09:27.868Z,9.2
2017-06-08T03:10:08.369Z,9.17
2017-06-08T03:10:48.847Z,9.15
2017-06-08T03:11:29.331Z,9.24
2017-06-08T03:12:09.819Z,9.17
2017-06-08T03:12:50.307Z,9.23
2017-06-08T03:13:30.781Z,9.21
2017-06-08T03:14:11.281Z,9.24
2017-06-08T03:14:51.749Z,9.17
2017-06-08T03:15:32.252Z,9.21
2017-06-08T03:16:12.730Z,9.18
2017-06-08T03:16:53.201Z,9.21
2017-06-08T03:17:33.693Z,9.14
2017-06-08T03:18:14.189Z,9.14
2017-06-08T03:18:54.674Z,9.15
2017-06-08T03:19:35.163Z,9.2
2017-06-08T03:20:15.653Z,9.15
2017-06-08T03:20:56.122Z,9.14
2017-06-08T03:21:36.604Z,9.17
2017-06-08T03:22:17.094Z,9.2
2017-06-08T03:22:57.587Z,9.24
2017-06-08T03:23:38.081Z,9.33
2017-06-08T03:24:18.538Z,9.17
2017-06-08T03:24:59.020Z,9.2
2017-06-08T03:25:39.523Z,9.2
2017-06-08T03:26:20.021Z,9.18
2017-06-08T03:27:00.518Z,9.21
2017-06-08T03:27:41.013Z,9.18
2017-06-08T03:28:21.484Z,9.18
2017-06-08T03:29:01.957Z,9.2
2017-06-08T03:29:42.433Z,9.15
2017-06-08T03:30:22.918Z,9.23
2017-06-08T03:31:03.418Z,9.23
2017-06-08T03:31:43.890Z,9.15
2017-06-08T03:32:24.375Z,9.14
2017-06-08T03:33:04.871Z,9.18
2017-06-08T03:33:45.352Z,9.17
2017-06-08T03:34:25.828Z,9.18
2017-06-08T03:35:06.304Z,9.14
2017-06-08T03:35:46.793Z,9.18
2017-06-08T03:36:27.288Z,9.18
2017-06-08T03:37:07.782Z,9.17
2017-06-08T03:37:48.254Z,9.18
2017-06-08T03:38:28.739Z,9.13
2017-06-08T03:39:09.231Z,9.11
2017-06-08T03:39:49.694Z,9.11
2017-06-08T03:40:30.175Z,9.2
2017-06-08T03:41:10.682Z,9.28
2017-06-08T03:41:51.152Z,9.17
2017-06-08T03:42:31.634Z,9.14
2017-06-08T03:43:12.116Z,9.23
2017-06-08T03:43:52.584Z,9.15
2017-06-08T03:44:33.077Z,9.2
2017-06-08T03:45:13.547Z,9.15
2017-06-08T03:45:54.034Z,9.18
2017-06-08T03:46:34.524Z,9.17
2017-06-08T03:47:15.013Z,9.18
2017-06-08T03:47:55.517Z,9.2
2017-06-08T03:48:35.988Z,9.17
2017-06-08T03:49:16.516Z,9.15
2017-06-08T03:49:56.960Z,9.17
2017-06-08T03:50:37.438Z,9.15
2017-06-08T03:51:17.899Z,9.23
2017-06-08T03:51:58.390Z,9.18
2017-06-08T03:52:38.871Z,9.21
2017-06-08T03:53:19.351Z,9.32
2017-06-08T03:53:59.851Z,9.36
2017-06-08T03:54:40.353Z,9.15
2017-06-08T03:55:20.816Z,9.32
2017-06-08T03:56:01.338Z,9.31
2017-06-08T03:56:41.782Z,9.23
2017-06-08T03:57:22.254Z,9.33
2017-06-08T03:58:02.744Z,9.39
2017-06-08T03:58:43.207Z,9.47
2017-06-08T03:59:23.693Z,9.43
2017-06-08T04:00:04.182Z,9.38
2017-06-08T04:00:44.685Z,9.38
2017-06-08T04:01:25.167Z,9.46
2017-06-08T04:02:05.647Z,9.48
2017-06-08T04:02:46.132Z,9.42
2017-06-08T04:03:26.629Z,9.5
2017-06-08T04:04:07.106Z,9.54
2017-06-08T04:04:47.596Z,9.58
2017-06-08T04:05:28.102Z,9.48
2017-06-08T04:06:08.579Z,9.56
2017-06-08T04:06:49.072Z,9.54
2017-06-08T04:07:29.565Z,9.57
2017-06-08T04:08:10.055Z,9.48
2017-06-08T04:08:50.533Z,9.58
2017-06-08T04:09:31.021Z,9.6
2017-06-08T04:10:11.517Z,9.68
2017-06-08T04:10:51.997Z,9.74
2017-06-08T04:11:32.495Z,9.75
2017-06-08T04:12:12.970Z,9.71
2017-06-08T04:12:53.451Z,9.71
2017-06-08T04:13:33.937Z,9.87
2017-06-08T04:14:14.425Z,9.78
2017-06-08T04:14:54.940Z,9.86
2017-06-08T04:15:35.403Z,9.9
2017-06-08T04:16:15.900Z,9.89
2017-06-08T04:16:56.403Z,9.89
2017-06-08T04:17:36.880Z,9.87
2017-06-08T04:18:17.374Z,9.94
2017-06-08T04:18:57.868Z,10.05
2017-06-08T04:19:38.355Z,10.09
2017-06-08T04:20:18.823Z,10.04
2017-06-08T04:20:59.314Z,10.07
2017-06-08T04:21:39.775Z,10.14
2017-06-08T04:22:20.241Z,10.22
2017-06-08T04:23:00.743Z,10.22
2017-06-08T04:23:41.218Z,10.26
2017-06-08T04:24:21.707Z,10.36
2017-06-08T04:25:02.187Z,10.42
2017-06-08T04:25:42.674Z,10.45
2017-06-08T04:26:23.149Z,10.59
2017-06-08T04:27:03.653Z,10.61
2017-06-08T04:27:44.145Z,10.68
2017-06-08T04:28:24.646Z,10.79
2017-06-08T04:29:05.088Z,10.81
2017-06-08T04:29:45.577Z,10.82
2017-06-08T04:30:26.049Z,10.92
2017-06-08T04:31:06.538Z,11.02
2017-06-08T04:31:47.015Z,11.06
2017-06-08T04:32:27.508Z,11.21
2017-06-08T04:33:08.006Z,11.33
2017-06-08T04:33:48.598Z,11.37
2017-06-08T04:34:29.088Z,11.69
2017-06-08T04:35:09.577Z,11.69
2017-06-08T04:35:50.071Z,11.9
2017-06-08T04:36:30.549Z,12.05
2017-06-08T04:37:11.034Z,12.28
2017-06-08T04:37:52.354Z,12.54
2017-06-08T04:38:32.822Z,12.62
2017-06-08T04:39:13.296Z,12.75
2017-06-08T04:39:53.785Z,12.93
2017-06-08T04:40:34.281Z,13.08
2017-06-08T04:41:14.761Z,13.29
2017-06-08T04:41:55.236Z,13.44
2017-06-08T04:42:35.723Z,13.55
2017-06-08T04:43:16.256Z,13.7
2017-06-08T04:43:56.695Z,13.82
2017-06-08T04:44:37.177Z,13.99
2017-06-08T04:45:17.652Z,14.09
2017-06-08T04:45:58.154Z,14.24
2017-06-08T04:46:38.633Z,14.28
2017-06-08T04:47:19.127Z,14.45
2017-06-08T04:47:59.622Z,14.55
2017-06-08T04:48:40.118Z,14.6
2017-06-08T04:49:20.603Z,14.84
2017-06-08T04:50:01.107Z,14.99
2017-06-08T04:50:41.595Z,14.96
2017-06-08T04:51:22.086Z,15.01
2017-06-08T04:52:02.580Z,15.11
2017-06-08T04:52:43.071Z,15.09
2017-06-08T04:53:23.564Z,15.06
2017-06-08T04:54:04.982Z,15.01
2017-06-08T04:54:45.467Z,14.84
2017-06-08T04:55:25.957Z,14.83
2017-06-08T04:56:06.461Z,14.72
2017-06-08T04:56:46.945Z,14.61
2017-06-08T04:57:27.442Z,14.46
2017-06-08T04:58:07.939Z,14.37
2017-06-08T04:58:48.425Z,14.52
2017-06-08T04:59:28.911Z,14.58
2017-06-08T05:00:09.413Z,14.61
2017-06-08T05:00:49.900Z,14.7
2017-06-08T05:01:30.389Z,14.91
2017-06-08T05:02:10.894Z,15.09
2017-06-08T05:02:51.381Z,15.28
2017-06-08T05:03:31.876Z,15.2
2017-06-08T05:04:12.370Z,15.44
2017-06-08T05:04:52.857Z,15.5
2017-06-08T05:05:33.348Z,15.5
2017-06-08T05:06:13.840Z,15.59
2017-06-08T05:06:54.334Z,15.53
2017-06-08T05:07:34.826Z,15.44
2017-06-08T05:08:15.336Z,15.23
2017-06-08T05:08:55.829Z,15.09
2017-06-08T05:09:36.327Z,15.02
2017-06-08T05:10:16.829Z,14.95
2017-06-08T05:10:57.339Z,14.64
2017-06-08T05:11:37.849Z,14.6
2017-06-08T05:12:18.342Z,14.51
2017-06-08T05:12:58.822Z,14.5
2017-06-08T05:13:39.324Z,14.45
2017-06-08T05:14:19.817Z,14.5
2017-06-08T05:15:00.310Z,14.36
2017-06-08T05:15:40.804Z,14.52
2017-06-08T05:16:21.306Z,14.54
2017-06-08T05:17:01.794Z,14.5
2017-06-08T05:17:42.276Z,14.5
2017-06-08T05:18:22.768Z,14.5
2017-06-08T05:19:03.258Z,14.5
2017-06-08T05:19:43.744Z,14.46
2017-06-08T05:20:24.225Z,14.54
2017-06-08T05:21:04.715Z,14.52
2017-06-08T05:21:45.218Z,14.6
2017-06-08T05:22:25.705Z,14.68
2017-06-08T05:23:06.187Z,14.86
2017-06-08T05:23:46.678Z,15.01
2017-06-08T05:24:27.170Z,15.03
2017-06-08T05:25:07.659Z,15.23
2017-06-08T05:25:48.160Z,15.14
2017-06-08T05:26:28.647Z,14.98
2017-06-08T05:27:09.159Z,15.02
2017-06-08T05:27:49.640Z,14.91
2017-06-08T05:28:30.136Z,14.99
2017-06-08T05:29:10.663Z,15.16
2017-06-08T05:29:51.144Z,15.32
2017-06-08T05:30:31.639Z,15.54
2017-06-08T05:31:12.132Z,15.59
2017-06-08T05:31:52.640Z,15.83
2017-06-08T05:32:33.129Z,15.76
2017-06-08T05:33:13.627Z,15.51
2017-06-08T05:33:54.126Z,15.36
2017-06-08T05:34:34.634Z,15.21
2017-06-08T05:35:15.111Z,15.09
2017-06-08T05:35:55.622Z,14.98
2017-06-08T05:36:36.111Z,15.01
2017-06-08T05:37:16.590Z,14.99
2017-06-08T05:37:57.086Z,14.92
2017-06-08T05:38:37.571Z,14.95
2017-06-08T05:39:18.062Z,14.95
2017-06-08T05:39:58.562Z,14.99
2017-06-08T05:40:39.063Z,14.95
2017-06-08T05:41:19.548Z,15.07
2017-06-08T05:42:00.039Z,15.13
2017-06-08T05:42:40.531Z,15.2
2017-06-08T05:43:21.023Z,15.14
2017-06-08T05:44:01.520Z,15.2
2017-06-08T05:44:42.002Z,15.2
2017-06-08T05:45:22.507Z,15.39
2017-06-08T05:46:02.990Z,15.29
2017-06-08T05:46:43.492Z,15.32
2017-06-08T05:47:23.976Z,15.53
2017-06-08T05:48:04.479Z,15.49
2017-06-08T05:48:44.968Z,15.62
2017-06-08T05:49:25.468Z,15.44
2017-06-08T05:50:05.957Z,15.54
2017-06-08T05:50:46.444Z,15.6
2017-06-08T05:51:26.935Z,15.68
2017-06-08T05:52:07.422Z,15.78
2017-06-08T05:52:47.922Z,15.69
2017-06-08T05:53:28.423Z,15.8
2017-06-08T05:54:08.910Z,15.83
2017-06-08T05:54:49.415Z,16
2017-06-08T05:55:29.925Z,16.17
2017-06-08T05:56:10.358Z,16.33
2017-06-08T05:56:50.846Z,16.39
2017-06-08T05:57:31.338Z,16.48
2017-06-08T05:58:11.826Z,16.49
2017-06-08T05:58:52.312Z,16.53
2017-06-08T05:59:32.816Z,16.66
2017-06-08T06:00:13.308Z,16.75
2017-06-08T06:00:53.791Z,16.83
2017-06-08T06:01:34.292Z,16.91
2017-06-08T06:02:14.777Z,17.11
2017-06-08T06:04:12.435Z,17.36
2017-06-08T06:04:52.872Z,17.46
2017-06-08T06:05:33.356Z,17.56
2017-06-08T06:06:13.844Z,17.59
2017-06-08T06:06:54.331Z,17.59
2017-06-08T06:07:34.835Z,17.72
2017-06-08T06:08:15.318Z,17.79
2017-06-08T06:08:55.807Z,17.96
2017-06-08T06:09:36.305Z,18.03
2017-06-08T06:10:16.794Z,17.97
2017-06-08T06:10:57.322Z,17.99
2017-06-08T06:11:37.810Z,17.89
2017-06-08T06:12:18.381Z,18.15
2017-06-08T06:12:58.789Z,18.21
2017-06-08T06:13:39.289Z,18.23
2017-06-08T06:14:19.793Z,18.14
2017-06-08T06:15:00.284Z,18.29
2017-06-08T06:15:40.754Z,18.42
2017-06-08T06:16:21.257Z,18.51
2017-06-08T06:17:01.738Z,18.66
2017-06-08T06:17:42.240Z,19.06
2017-06-08T06:18:22.737Z,19.28
2017-06-08T06:19:03.235Z,19.31
2017-06-08T06:19:44.384Z,19.26
2017-06-08T06:20:24.885Z,19.07
2017-06-08T06:21:05.396Z,18.91
2017-06-08T06:21:45.888Z,18.95
2017-06-08T06:22:26.411Z,18.99
2017-06-08T06:23:06.878Z,18.55
2017-06-08T06:23:47.361Z,18.27
2017-06-08T06:24:27.853Z,18.3
2017-06-08T06:25:08.358Z,18.15
2017-06-08T06:25:48.883Z,18.02
2017-06-08T06:26:29.381Z,17.81
2017-06-08T06:27:09.919Z,17.96
2017-06-08T06:27:50.438Z,17.99
2017-06-08T06:28:30.954Z,17.82
2017-06-08T06:29:11.412Z,17.63
2017-06-08T06:29:51.903Z,17.52
2017-06-08T06:30:32.386Z,17.62
2017-06-08T06:31:12.885Z,17.49
2017-06-08T06:31:53.385Z,17.48
2017-06-08T06:32:33.864Z,17.59
2017-06-08T06:33:14.356Z,17.78
2017-06-08T06:33:54.869Z,17.79
2017-06-08T06:34:36.309Z,18.08
2017-06-08T06:35:16.801Z,18.23
2017-06-08T06:35:57.328Z,18.3
2017-06-08T06:36:37.823Z,18.55
2017-06-08T06:37:18.339Z,18.76
2017-06-08T06:37:58.826Z,18.65
2017-06-08T06:38:39.322Z,18.45
2017-06-08T06:39:19.814Z,18.78
2017-06-08T06:40:00.311Z,19
2017-06-08T06:40:40.932Z,19.41
2017-06-08T06:41:21.425Z,19.47
2017-06-08T06:42:01.920Z,19.98
2017-06-08T06:42:43.098Z,19.96
2017-06-08T06:43:23.592Z,20.03
2017-06-08T06:44:04.085Z,19.91
2017-06-08T06:44:44.588Z,20.2
2017-06-08T06:45:25.130Z,20.36
2017-06-08T06:46:05.614Z,20.7
2017-06-08T06:46:46.178Z,20.88
2017-06-08T06:47:26.676Z,21.16
2017-06-08T06:48:07.167Z,21.28
2017-06-08T06:48:47.669Z,21.53
2017-06-08T06:49:28.216Z,21.43
2017-06-08T06:50:08.679Z,21.59
2017-06-08T06:50:49.203Z,21.62
2017-06-08T06:51:29.657Z,21.67
2017-06-08T06:52:10.151Z,21.14
2017-06-08T06:52:50.675Z,21.31
2017-06-08T06:53:31.184Z,21.06
2017-06-08T06:54:11.669Z,20.8
2017-06-08T06:54:52.160Z,20.52
2017-06-08T06:55:32.650Z,20.29
2017-06-08T06:56:13.144Z,20.26
2017-06-08T06:56:53.642Z,20.13
2017-06-08T06:57:34.128Z,20.21
2017-06-08T06:58:14.625Z,20.55
2017-06-08T06:58:55.145Z,20.82
2017-06-08T06:59:35.643Z,21.22
2017-06-08T07:00:16.153Z,21.44
2017-06-08T07:00:56.633Z,21.44
2017-06-08T07:01:37.138Z,21.47
2017-06-08T07:02:17.627Z,21.64
2017-06-08T07:02:59.134Z,21.71
2017-06-08T07:03:39.643Z,22.12
2017-06-08T07:04:20.117Z,22.39
2017-06-08T07:05:00.619Z,22.25
2017-06-08T07:05:41.114Z,22.35
2017-06-08T07:06:21.597Z,22.33
2017-06-08T07:07:02.095Z,22.47
2017-06-08T07:07:42.573Z,22.3
2017-06-08T07:08:23.094Z,22.91
2017-06-08T07:09:03.587Z,23.38
2017-06-08T07:09:44.086Z,23.46
2017-06-08T07:10:24.578Z,23.31
2017-06-08T07:11:05.063Z,23.19
2017-06-08T07:11:45.574Z,23.43
2017-06-08T07:12:26.025Z,23.5
2017-06-08T07:13:06.489Z,23.76
2017-06-08T07:14:53.975Z,23.95
2017-06-08T07:15:34.496Z,24.22
2017-06-08T07:16:14.970Z,24.31
2017-06-08T07:16:55.407Z,24.34
2017-06-08T07:17:35.937Z,24.42
2017-06-08T07:18:16.413Z,24.5
2017-06-08T07:18:56.904Z,24.71
2017-06-08T07:19:37.363Z,24.77
2017-06-08T07:20:17.837Z,24.55
2017-06-08T07:20:58.301Z,23.57
2017-06-08T07:21:38.776Z,23.73
2017-06-08T07:23:36.507Z,24.37
2017-06-08T07:24:16.902Z,24.21
2017-06-08T07:24:57.367Z,24.24
2017-06-08T07:25:37.859Z,24.53
2017-06-08T07:26:18.437Z,24.6
2017-06-08T07:26:58.926Z,24.47
2017-06-08T07:27:39.439Z,24.31
2017-06-08T07:28:19.905Z,24.64
2017-06-08T07:29:00.495Z,24.64
2017-06-08T07:29:41.011Z,24.68
2017-06-08T07:31:33.610Z,24.95
2017-06-08T07:32:14.056Z,24.81
2017-06-08T07:32:54.574Z,24.61
2017-06-08T07:33:35.091Z,24.62
2017-06-08T07:34:15.583Z,24.65
2017-06-08T07:34:56.078Z,25.27
2017-06-08T07:35:36.565Z,25.51
2017-06-08T07:36:17.056Z,26.02
2017-06-08T07:36:57.527Z,26.09
2017-06-08T07:37:38.034Z,26.47
2017-06-08T07:38:18.528Z,26.52
2017-06-08T07:38:59.052Z,26.09
2017-06-08T07:39:39.513Z,26.39
2017-06-08T07:40:20.035Z,26.07
2017-06-08T07:41:00.539Z,26.6
2017-06-08T07:41:41.031Z,26.91
2017-06-08T07:42:21.500Z,26.84
2017-06-08T07:43:02.014Z,26.54
2017-06-08T07:43:42.499Z,26.67
2017-06-08T07:44:22.977Z,27
2017-06-08T07:45:03.513Z,26.67
2017-06-08T07:47:16.260Z,27.04
2017-06-08T07:47:56.805Z,27.37
2017-06-08T07:48:37.285Z,27.51
2017-06-08T07:49:17.791Z,26.89
2017-06-08T07:49:58.283Z,27.06
2017-06-08T07:50:41.098Z,27.12
2017-06-08T07:51:21.995Z,27.13
2017-06-08T07:53:19.711Z,27.99
2017-06-08T07:54:00.155Z,28.33
2017-06-08T07:54:40.689Z,28.9
2017-06-08T07:56:28.171Z,27.96
2017-06-08T07:57:08.668Z,27.32
2017-06-08T07:57:49.221Z,27.78
2017-06-08T07:58:29.718Z,27.79
2017-06-08T07:59:10.206Z,27.29
2017-06-08T07:59:50.692Z,27.06
2017-06-08T08:00:31.154Z,27.36
2017-06-08T08:01:11.798Z,27.94
2017-06-08T08:01:52.203Z,28.22
2017-06-08T08:02:32.740Z,28.06
2017-06-08T08:03:13.226Z,28
2017-06-08T08:03:53.701Z,27.46
2017-06-08T08:04:34.188Z,27.47
2017-06-08T08:05:14.750Z,28.3
2017-06-08T08:05:55.259Z,27.99
2017-06-08T08:06:35.753Z,27.41
2017-06-08T08:07:16.269Z,27.54
2017-06-08T08:07:56.796Z,27.03
2017-06-08T08:08:37.309Z,26.85
2017-06-08T08:09:17.831Z,27.44
2017-06-08T08:09:58.420Z,27.69
2017-06-08T08:10:38.927Z,27.77
2017-06-08T08:11:19.433Z,27.22
2017-06-08T08:11:59.907Z,26.97
2017-06-08T08:12:40.394Z,27.41
2017-06-08T08:13:20.891Z,27.63
2017-06-08T08:14:01.408Z,28
2017-06-08T08:14:41.911Z,28.27
2017-06-08T08:15:22.405Z,28.27
2017-06-08T08:16:02.899Z,28.24
2017-06-08T08:16:43.395Z,27.87
2017-06-08T08:17:23.883Z,27.47
2017-06-08T08:18:04.419Z,27.17
2017-06-08T08:18:44.919Z,26.97
2017-06-08T08:19:25.434Z,27.25
2017-06-08T08:20:06.013Z,27.32
2017-06-08T08:20:46.510Z,27.5
2017-06-08T08:21:27.001Z,27.57
2017-06-08T08:22:07.495Z,27.09
2017-06-08T08:22:47.988Z,27.29
2017-06-08T08:23:28.512Z,26.65
2017-06-08T08:24:09.029Z,27.02
2017-06-08T08:24:49.533Z,27.57
2017-06-08T08:25:30.025Z,27.65
2017-06-08T08:26:10.549Z,27.24
2017-06-08T08:26:51.053Z,27.78
2017-06-08T08:27:31.538Z,27.99
2017-06-08T08:28:12.038Z,28.02
2017-06-08T08:28:52.605Z,28.67
2017-06-08T08:30:40.087Z,28
2017-06-08T08:31:20.578Z,28.54
2017-06-08T08:32:01.107Z,28.76
2017-06-08T08:32:41.608Z,29.27
2017-06-08T08:33:22.117Z,29.27
2017-06-08T08:34:02.597Z,29.42
2017-06-08T08:34:43.086Z,29.24
2017-06-08T08:35:23.595Z,28.61
2017-06-08T08:36:04.231Z,29.45
2017-06-08T08:36:44.562Z,29.39
2017-06-08T08:37:25.074Z,29.7
2017-06-08T08:38:05.553Z,30.05
2017-06-08T08:38:46.042Z,30.32
2017-06-08T08:39:26.549Z,30.84
2017-06-08T08:40:07.127Z,30.35
2017-06-08T08:40:47.625Z,30.45
2017-06-08T08:41:28.128Z,30.19
2017-06-08T08:42:08.664Z,30.34
2017-06-08T08:42:49.231Z,30.7
2017-06-08T08:43:29.729Z,31.41
2017-06-08T08:44:10.223Z,31.39
2017-06-08T08:44:50.753Z,31.2
2017-06-08T08:45:31.247Z,30.19
2017-06-08T08:46:11.760Z,30.65
2017-06-08T08:46:52.316Z,31.14
2017-06-08T08:47:32.817Z,31.02
2017-06-08T08:48:13.319Z,30.2
2017-06-08T08:48:53.845Z,28.89
2017-06-08T08:49:34.334Z,28.02
2017-06-08T08:50:14.823Z,28.71
2017-06-08T08:50:55.323Z,29.41
2017-06-08T08:51:35.832Z,30.27
2017-06-08T08:52:16.332Z,30.35
2017-06-08T08:52:56.811Z,30.95
2017-06-08T08:53:37.329Z,31.36
2017-06-08T08:54:17.861Z,31.91
2017-06-08T08:54:58.380Z,31.66
2017-06-08T08:55:38.857Z,31.84
2017-06-08T08:56:19.353Z,31.66
2017-06-08T08:56:59.846Z,31.8
2017-06-08T08:57:40.352Z,32.04
2017-06-08T08:58:20.865Z,32.37
2017-06-08T08:59:01.354Z,31.99
2017-06-08T08:59:41.857Z,30.7
2017-06-08T09:00:22.386Z,30.55